sensor_id;sensor_type;location;lat;lon;timestamp;P1;durP1;ratioP1;P2;durP2;ratioP2
64601;SDS011;51013;42.630;23.192;2022-12-07T00:01:56;8.48;;;2.70;;
64601;SDS011;51013;42.630;23.192;2022-12-07T00:04:23;7.75;;;2.53;;
64601;SDS011;51013;42.630;23.192;2022-12-07T00:06:54;6.15;;;2.65;;
64601;SDS011;51013;42.630;23.192;2022-12-07T00:09:22;4.13;;;2.00;;
64601;SDS011;51013;42.630;23.192;2022-12-07T00:11:49;10.88;;;2.70;;
64601;SDS011;51013;42.630;23.192;2022-12-07T00:14:18;8.70;;;2.45;;
64601;SDS011;51013;42.630;23.192;2022-12-07T00:16:48;5.55;;;1.58;;
64601;SDS011;51013;42.630;23.192;2022-12-07T00:19:16;7.83;;;2.80;;
64601;SDS011;51013;42.630;23.192;2022-12-07T00:21:44;4.88;;;2.60;;
64601;SDS011;51013;42.630;23.192;2022-12-07T00:24:13;3.92;;;2.03;;
64601;SDS011;51013;42.630;23.192;2022-12-07T00:26:40;5.35;;;2.60;;
64601;SDS011;51013;42.630;23.192;2022-12-07T00:29:10;6.22;;;2.55;;
64601;SDS011;51013;42.630;23.192;2022-12-07T00:31:41;9.95;;;3.35;;
64601;SDS011;51013;42.630;23.192;2022-12-07T00:34:11;6.13;;;2.25;;
64601;SDS011;51013;42.630;23.192;2022-12-07T00:36:41;6.13;;;2.58;;
64601;SDS011;51013;42.630;23.192;2022-12-07T00:39:08;8.25;;;2.65;;
64601;SDS011;51013;42.630;23.192;2022-12-07T00:41:36;8.35;;;3.00;;
64601;SDS011;51013;42.630;23.192;2022-12-07T00:44:04;5.70;;;2.70;;
64601;SDS011;51013;42.630;23.192;2022-12-07T00:46:31;12.88;;;3.40;;
64601;SDS011;51013;42.630;23.192;2022-12-07T00:48:58;6.63;;;3.28;;
64601;SDS011;51013;42.630;23.192;2022-12-07T00:51:27;5.95;;;2.80;;
64601;SDS011;51013;42.630;23.192;2022-12-07T00:53:54;7.10;;;2.75;;
64601;SDS011;51013;42.630;23.192;2022-12-07T00:56:21;6.13;;;2.60;;
64601;SDS011;51013;42.630;23.192;2022-12-07T00:58:51;5.55;;;2.88;;
64601;SDS011;51013;42.630;23.192;2022-12-07T01:01:22;6.07;;;2.85;;
64601;SDS011;51013;42.630;23.192;2022-12-07T01:03:50;10.05;;;3.50;;
64601;SDS011;51013;42.630;23.192;2022-12-07T01:06:23;6.18;;;2.70;;
64601;SDS011;51013;42.630;23.192;2022-12-07T01:08:53;13.27;;;3.20;;
64601;SDS011;51013;42.630;23.192;2022-12-07T01:11:22;5.95;;;3.10;;
64601;SDS011;51013;42.630;23.192;2022-12-07T01:13:51;7.43;;;3.13;;
64601;SDS011;51013;42.630;23.192;2022-12-07T01:16:20;8.38;;;2.75;;
64601;SDS011;51013;42.630;23.192;2022-12-07T01:18:50;9.55;;;3.53;;
64601;SDS011;51013;42.630;23.192;2022-12-07T01:21:22;6.15;;;2.83;;
64601;SDS011;51013;42.630;23.192;2022-12-07T01:23:54;8.63;;;3.17;;
64601;SDS011;51013;42.630;23.192;2022-12-07T01:26:24;6.72;;;3.20;;
64601;SDS011;51013;42.630;23.192;2022-12-07T01:29:03;5.85;;;2.88;;
64601;SDS011;51013;42.630;23.192;2022-12-07T01:31:33;6.32;;;2.90;;
64601;SDS011;51013;42.630;23.192;2022-12-07T01:34:01;5.93;;;2.20;;
64601;SDS011;51013;42.630;23.192;2022-12-07T01:36:30;6.85;;;3.13;;
64601;SDS011;51013;42.630;23.192;2022-12-07T01:39:00;10.02;;;3.10;;
64601;SDS011;51013;42.630;23.192;2022-12-07T01:41:30;14.05;;;3.40;;
64601;SDS011;51013;42.630;23.192;2022-12-07T01:44:09;10.90;;;3.80;;
64601;SDS011;51013;42.630;23.192;2022-12-07T01:46:38;6.85;;;2.47;;
64601;SDS011;51013;42.630;23.192;2022-12-07T01:49:07;5.05;;;2.97;;
64601;SDS011;51013;42.630;23.192;2022-12-07T01:51:36;14.48;;;3.08;;
64601;SDS011;51013;42.630;23.192;2022-12-07T01:54:08;5.45;;;3.00;;
64601;SDS011;51013;42.630;23.192;2022-12-07T01:56:38;10.27;;;3.05;;
64601;SDS011;51013;42.630;23.192;2022-12-07T01:59:06;9.45;;;3.20;;
64601;SDS011;51013;42.630;23.192;2022-12-07T02:01:34;7.07;;;3.25;;
64601;SDS011;51013;42.630;23.192;2022-12-07T02:04:04;12.05;;;3.10;;
64601;SDS011;51013;42.630;23.192;2022-12-07T02:06:33;10.75;;;3.50;;
64601;SDS011;51013;42.630;23.192;2022-12-07T02:09:02;6.00;;;2.80;;
64601;SDS011;51013;42.630;23.192;2022-12-07T02:11:30;6.50;;;2.45;;
64601;SDS011;51013;42.630;23.192;2022-12-07T02:13:58;7.38;;;3.42;;
64601;SDS011;51013;42.630;23.192;2022-12-07T02:16:27;18.13;;;3.63;;
64601;SDS011;51013;42.630;23.192;2022-12-07T02:19:06;7.63;;;3.08;;
64601;SDS011;51013;42.630;23.192;2022-12-07T02:21:51;7.05;;;3.45;;
64601;SDS011;51013;42.630;23.192;2022-12-07T02:24:31;7.35;;;2.83;;
64601;SDS011;51013;42.630;23.192;2022-12-07T02:27:27;10.52;;;3.10;;
64601;SDS011;51013;42.630;23.192;2022-12-07T02:32:38;6.75;;;2.17;;
64601;SDS011;51013;42.630;23.192;2022-12-07T02:35:11;5.38;;;3.05;;
64601;SDS011;51013;42.630;23.192;2022-12-07T02:37:48;9.93;;;3.50;;
64601;SDS011;51013;42.630;23.192;2022-12-07T02:40:27;12.90;;;2.83;;
64601;SDS011;51013;42.630;23.192;2022-12-07T02:42:59;8.48;;;2.60;;
64601;SDS011;51013;42.630;23.192;2022-12-07T02:45:32;6.97;;;3.22;;
64601;SDS011;51013;42.630;23.192;2022-12-07T02:48:06;3.53;;;2.03;;
64601;SDS011;51013;42.630;23.192;2022-12-07T02:50:36;7.60;;;3.60;;
64601;SDS011;51013;42.630;23.192;2022-12-07T02:53:03;6.80;;;2.95;;
64601;SDS011;51013;42.630;23.192;2022-12-07T02:55:33;7.20;;;3.25;;
64601;SDS011;51013;42.630;23.192;2022-12-07T02:58:09;10.65;;;3.40;;
64601;SDS011;51013;42.630;23.192;2022-12-07T03:00:52;7.32;;;2.60;;
64601;SDS011;51013;42.630;23.192;2022-12-07T03:03:31;5.47;;;2.92;;
64601;SDS011;51013;42.630;23.192;2022-12-07T03:06:05;7.50;;;3.83;;
64601;SDS011;51013;42.630;23.192;2022-12-07T03:08:42;6.45;;;2.90;;
64601;SDS011;51013;42.630;23.192;2022-12-07T03:11:16;9.50;;;2.88;;
64601;SDS011;51013;42.630;23.192;2022-12-07T03:13:52;8.45;;;3.45;;
64601;SDS011;51013;42.630;23.192;2022-12-07T03:16:28;14.85;;;2.88;;
64601;SDS011;51013;42.630;23.192;2022-12-07T03:19:02;7.55;;;2.95;;
64601;SDS011;51013;42.630;23.192;2022-12-07T03:21:36;6.78;;;3.30;;
64601;SDS011;51013;42.630;23.192;2022-12-07T03:24:08;5.63;;;3.15;;
64601;SDS011;51013;42.630;23.192;2022-12-07T03:26:41;6.60;;;3.30;;
64601;SDS011;51013;42.630;23.192;2022-12-07T03:29:19;10.75;;;4.03;;
64601;SDS011;51013;42.630;23.192;2022-12-07T03:34:23;6.60;;;3.08;;
64601;SDS011;51013;42.630;23.192;2022-12-07T03:37:00;9.98;;;3.15;;
64601;SDS011;51013;42.630;23.192;2022-12-07T03:43:00;6.22;;;3.08;;
64601;SDS011;51013;42.630;23.192;2022-12-07T03:45:32;8.68;;;3.53;;
64601;SDS011;51013;42.630;23.192;2022-12-07T03:51:00;5.07;;;2.65;;
64601;SDS011;51013;42.630;23.192;2022-12-07T03:53:43;7.72;;;3.78;;
64601;SDS011;51013;42.630;23.192;2022-12-07T03:56:15;6.57;;;3.17;;
64601;SDS011;51013;42.630;23.192;2022-12-07T03:58:45;10.05;;;3.15;;
64601;SDS011;51013;42.630;23.192;2022-12-07T04:01:24;7.03;;;3.17;;
64601;SDS011;51013;42.630;23.192;2022-12-07T04:03:57;4.70;;;2.50;;
64601;SDS011;51013;42.630;23.192;2022-12-07T04:06:25;6.35;;;3.38;;
64601;SDS011;51013;42.630;23.192;2022-12-07T04:08:55;7.75;;;3.38;;
64601;SDS011;51013;42.630;23.192;2022-12-07T04:11:26;8.90;;;2.72;;
64601;SDS011;51013;42.630;23.192;2022-12-07T04:14:02;8.38;;;2.95;;
64601;SDS011;51013;42.630;23.192;2022-12-07T04:17:08;6.22;;;3.28;;
64601;SDS011;51013;42.630;23.192;2022-12-07T04:22:13;6.88;;;2.80;;
64601;SDS011;51013;42.630;23.192;2022-12-07T04:30:27;7.75;;;3.45;;
64601;SDS011;51013;42.630;23.192;2022-12-07T04:32:55;9.07;;;3.50;;
64601;SDS011;51013;42.630;23.192;2022-12-07T04:35:22;8.50;;;3.08;;
64601;SDS011;51013;42.630;23.192;2022-12-07T04:37:56;9.10;;;3.63;;
64601;SDS011;51013;42.630;23.192;2022-12-07T04:45:29;12.10;;;3.70;;
64601;SDS011;51013;42.630;23.192;2022-12-07T04:48:11;10.55;;;4.28;;
64601;SDS011;51013;42.630;23.192;2022-12-07T04:50:42;8.68;;;3.78;;
64601;SDS011;51013;42.630;23.192;2022-12-07T04:53:37;6.22;;;2.90;;
64601;SDS011;51013;42.630;23.192;2022-12-07T18:08:42;4.63;;;2.38;;
64601;SDS011;51013;42.630;23.192;2022-12-07T18:14:05;8.07;;;3.20;;
64601;SDS011;51013;42.630;23.192;2022-12-07T18:16:32;7.90;;;2.42;;
64601;SDS011;51013;42.630;23.192;2022-12-07T18:19:01;7.32;;;3.63;;
64601;SDS011;51013;42.630;23.192;2022-12-07T18:21:33;11.23;;;4.55;;
64601;SDS011;51013;42.630;23.192;2022-12-07T18:24:05;14.27;;;4.57;;
64601;SDS011;51013;42.630;23.192;2022-12-07T18:41:18;14.73;;;4.50;;
64601;SDS011;51013;42.630;23.192;2022-12-07T18:46:47;13.55;;;4.22;;
64601;SDS011;51013;42.630;23.192;2022-12-07T18:49:18;14.07;;;5.07;;
64601;SDS011;51013;42.630;23.192;2022-12-07T18:51:48;16.55;;;5.53;;
64601;SDS011;51013;42.630;23.192;2022-12-07T18:54:21;24.92;;;9.20;;
64601;SDS011;51013;42.630;23.192;2022-12-07T18:56:51;10.00;;;4.93;;
64601;SDS011;51013;42.630;23.192;2022-12-07T18:59:29;8.88;;;5.22;;
64601;SDS011;51013;42.630;23.192;2022-12-07T19:02:15;9.75;;;4.57;;
64601;SDS011;51013;42.630;23.192;2022-12-07T19:07:50;8.55;;;3.75;;
64601;SDS011;51013;42.630;23.192;2022-12-07T19:10:35;9.13;;;4.78;;
64601;SDS011;51013;42.630;23.192;2022-12-07T19:13:04;9.00;;;3.72;;
64601;SDS011;51013;42.630;23.192;2022-12-07T19:15:33;7.20;;;4.03;;
64601;SDS011;51013;42.630;23.192;2022-12-07T19:18:10;11.05;;;4.50;;
64601;SDS011;51013;42.630;23.192;2022-12-07T19:20:37;15.10;;;5.07;;
64601;SDS011;51013;42.630;23.192;2022-12-07T19:23:08;7.53;;;3.53;;
64601;SDS011;51013;42.630;23.192;2022-12-07T19:25:35;8.30;;;4.25;;
64601;SDS011;51013;42.630;23.192;2022-12-07T19:30:39;9.27;;;4.18;;
64601;SDS011;51013;42.630;23.192;2022-12-07T19:33:08;9.82;;;4.53;;
64601;SDS011;51013;42.630;23.192;2022-12-07T19:38:13;12.77;;;4.63;;
64601;SDS011;51013;42.630;23.192;2022-12-07T19:40:42;10.45;;;4.70;;
64601;SDS011;51013;42.630;23.192;2022-12-07T19:43:09;8.13;;;4.15;;
64601;SDS011;51013;42.630;23.192;2022-12-07T19:45:36;11.07;;;4.85;;
64601;SDS011;51013;42.630;23.192;2022-12-07T20:08:01;21.45;;;4.88;;
